sensor_id;sensor_type;location;lat;lon;timestamp;temperature;humidity
48019;DHT22;33786;48.690;9.562;2022-12-18T00:01:24;-13.40;99.90
48019;DHT22;33786;48.690;9.562;2022-12-18T00:03:52;-13.40;99.90
48019;DHT22;33786;48.690;9.562;2022-12-18T00:06:19;-13.50;99.90
48019;DHT22;33786;48.690;9.562;2022-12-18T00:08:46;-13.40;99.90
48019;DHT22;33786;48.690;9.562;2022-12-18T00:11:14;-13.50;99.90
48019;DHT22;33786;48.690;9.562;2022-12-18T00:13:41;-13.60;99.90
48019;DHT22;33786;48.690;9.562;2022-12-18T00:16:09;-13.50;99.90
48019;DHT22;33786;48.690;9.562;2022-12-18T00:18:36;-13.60;99.90
48019;DHT22;33786;48.690;9.562;2022-12-18T00:21:04;-13.60;99.90
48019;DHT22;33786;48.690;9.562;2022-12-18T00:23:32;-13.60;99.90
48019;DHT22;33786;48.690;9.562;2022-12-18T00:26:03;-13.70;99.90
48019;DHT22;33786;48.690;9.562;2022-12-18T00:28:30;-13.70;99.90
48019;DHT22;33786;48.690;9.562;2022-12-18T00:31:07;-13.70;99.90
48019;DHT22;33786;48.690;9.562;2022-12-18T00:33:34;-13.80;99.90
48019;DHT22;33786;48.690;9.562;2022-12-18T00:38:28;-13.80;99.90
48019;DHT22;33786;48.690;9.562;2022-12-18T00:40:55;-13.90;99.90
48019;DHT22;33786;48.690;9.562;2022-12-18T00:43:22;-13.90;99.90
48019;DHT22;33786;48.690;9.562;2022-12-18T00:45:49;-14.00;99.90
48019;DHT22;33786;48.690;9.562;2022-12-18T00:48:15;-14.00;99.90
48019;DHT22;33786;48.690;9.562;2022-12-18T00:50:42;-14.00;99.90
48019;DHT22;33786;48.690;9.562;2022-12-18T00:53:12;-14.10;99.90
48019;DHT22;33786;48.690;9.562;2022-12-18T00:55:39;-14.00;99.90
48019;DHT22;33786;48.690;9.562;2022-12-18T00:58:06;-14.10;99.90
48019;DHT22;33786;48.690;9.562;2022-12-18T01:00:32;-14.00;99.90
48019;DHT22;33786;48.690;9.562;2022-12-18T01:02:59;-14.10;99.90
48019;DHT22;33786;48.690;9.562;2022-12-18T01:05:26;-14.00;99.90
48019;DHT22;33786;48.690;9.562;2022-12-18T01:07:54;-14.00;99.90
48019;DHT22;33786;48.690;9.562;2022-12-18T01:10:21;-14.10;99.90
48019;DHT22;33786;48.690;9.562;2022-12-18T01:12:48;-14.10;99.90
48019;DHT22;33786;48.690;9.562;2022-12-18T01:15:15;-14.10;99.90
48019;DHT22;33786;48.690;9.562;2022-12-18T01:17:42;-14.10;99.90
48019;DHT22;33786;48.690;9.562;2022-12-18T01:20:10;-14.20;99.90
48019;DHT22;33786;48.690;9.562;2022-12-18T01:22:37;-14.20;99.90
48019;DHT22;33786;48.690;9.562;2022-12-18T01:25:04;-14.20;99.90
48019;DHT22;33786;48.690;9.562;2022-12-18T01:27:32;-14.30;99.90
48019;DHT22;33786;48.690;9.562;2022-12-18T01:29:59;-14.20;99.90
48019;DHT22;33786;48.690;9.562;2022-12-18T01:32:25;-14.20;99.90
48019;DHT22;33786;48.690;9.562;2022-12-18T01:34:52;-14.20;99.90
48019;DHT22;33786;48.690;9.562;2022-12-18T01:37:19;-14.20;99.90
48019;DHT22;33786;48.690;9.562;2022-12-18T01:39:46;-14.10;99.90
48019;DHT22;33786;48.690;9.562;2022-12-18T01:42:13;-14.20;99.90
48019;DHT22;33786;48.690;9.562;2022-12-18T01:47:15;-14.10;99.90
48019;DHT22;33786;48.690;9.562;2022-12-18T01:49:44;-14.10;99.90
48019;DHT22;33786;48.690;9.562;2022-12-18T01:52:11;-14.10;99.90
48019;DHT22;33786;48.690;9.562;2022-12-18T01:54:38;-14.10;99.90
48019;DHT22;33786;48.690;9.562;2022-12-18T01:57:05;-14.10;99.90
48019;DHT22;33786;48.690;9.562;2022-12-18T01:59:32;-14.20;99.90
48019;DHT22;33786;48.690;9.562;2022-12-18T02:01:59;-14.20;99.90
48019;DHT22;33786;48.690;9.562;2022-12-18T02:04:27;-14.20;99.90
48019;DHT22;33786;48.690;9.562;2022-12-18T02:06:55;-14.30;99.90
48019;DHT22;33786;48.690;9.562;2022-12-18T02:09:28;-14.20;99.90
48019;DHT22;33786;48.690;9.562;2022-12-18T02:17:22;-14.40;99.90
48019;DHT22;33786;48.690;9.562;2022-12-18T02:25:28;-14.20;99.90
48019;DHT22;33786;48.690;9.562;2022-12-18T02:28:02;-14.30;99.90
48019;DHT22;33786;48.690;9.562;2022-12-18T02:30:30;-14.20;99.90
48019;DHT22;33786;48.690;9.562;2022-12-18T02:32:58;-14.30;99.90
48019;DHT22;33786;48.690;9.562;2022-12-18T02:35:27;-14.20;99.90
48019;DHT22;33786;48.690;9.562;2022-12-18T02:37:56;-14.20;99.90
48019;DHT22;33786;48.690;9.562;2022-12-18T02:40:24;-14.10;99.90
48019;DHT22;33786;48.690;9.562;2022-12-18T02:42:52;-14.10;99.90
48019;DHT22;33786;48.690;9.562;2022-12-18T02:45:19;-14.00;99.90
48019;DHT22;33786;48.690;9.562;2022-12-18T02:47:47;-14.10;99.90
48019;DHT22;33786;48.690;9.562;2022-12-18T02:53:03;-14.00;99.90
48019;DHT22;33786;48.690;9.562;2022-12-18T02:58:08;-13.80;99.90
48019;DHT22;33786;48.690;9.562;2022-12-18T03:00:41;-13.80;99.90
48019;DHT22;33786;48.690;9.562;2022-12-18T03:03:11;-13.80;99.90
48019;DHT22;33786;48.690;9.562;2022-12-18T03:06:01;-13.80;99.90
48019;DHT22;33786;48.690;9.562;2022-12-18T03:08:29;-13.70;99.90
48019;DHT22;33786;48.690;9.562;2022-12-18T03:11:00;-13.70;99.90
48019;DHT22;33786;48.690;9.562;2022-12-18T03:13:39;-13.70;99.90
48019;DHT22;33786;48.690;9.562;2022-12-18T03:16:10;-13.70;99.90
48019;DHT22;33786;48.690;9.562;2022-12-18T03:21:10;-13.60;99.90
48019;DHT22;33786;48.690;9.562;2022-12-18T03:23:47;-13.60;99.90
48019;DHT22;33786;48.690;9.562;2022-12-18T03:26:16;-13.80;99.90
48019;DHT22;33786;48.690;9.562;2022-12-18T03:28:45;-13.70;99.90
48019;DHT22;33786;48.690;9.562;2022-12-18T03:31:14;-13.60;99.90
48019;DHT22;33786;48.690;9.562;2022-12-18T03:33:42;-13.60;99.90
48019;DHT22;33786;48.690;9.562;2022-12-18T03:36:10;-13.60;99.90
48019;DHT22;33786;48.690;9.562;2022-12-18T03:38:37;-13.60;99.90
48019;DHT22;33786;48.690;9.562;2022-12-18T03:42:04;-13.60;99.90
48019;DHT22;33786;48.690;9.562;2022-12-18T03:44:43;-13.60;99.90
48019;DHT22;33786;48.690;9.562;2022-12-18T03:50:06;-13.60;99.90
48019;DHT22;33786;48.690;9.562;2022-12-18T03:54:38;-13.60;99.90
48019;DHT22;33786;48.690;9.562;2022-12-18T03:57:12;-13.60;99.90
48019;DHT22;33786;48.690;9.562;2022-12-18T03:59:39;-13.60;99.90
48019;DHT22;33786;48.690;9.562;2022-12-18T04:02:07;-13.50;99.90
48019;DHT22;33786;48.690;9.562;2022-12-18T04:04:35;-13.60;99.90
48019;DHT22;33786;48.690;9.562;2022-12-18T04:07:04;-13.60;99.90
48019;DHT22;33786;48.690;9.562;2022-12-18T04:09:31;-13.50;99.90
48019;DHT22;33786;48.690;9.562;2022-12-18T04:11:59;-13.50;99.90
48019;DHT22;33786;48.690;9.562;2022-12-18T04:14:26;-13.50;99.90
48019;DHT22;33786;48.690;9.562;2022-12-18T04:16:53;-13.50;99.90
48019;DHT22;33786;48.690;9.562;2022-12-18T04:19:20;-13.60;99.90
48019;DHT22;33786;48.690;9.562;2022-12-18T04:21:46;-13.60;99.90
48019;DHT22;33786;48.690;9.562;2022-12-18T04:24:13;-13.60;99.90
48019;DHT22;33786;48.690;9.562;2022-12-18T04:26:40;-13.70;99.90
48019;DHT22;33786;48.690;9.562;2022-12-18T04:29:07;-13.70;99.90
48019;DHT22;33786;48.690;9.562;2022-12-18T04:31:34;-13.70;99.90
48019;DHT22;33786;48.690;9.562;2022-12-18T04:34:01;-13.80;99.90
48019;DHT22;33786;48.690;9.562;2022-12-18T04:36:28;-13.80;99.90
48019;DHT22;33786;48.690;9.562;2022-12-18T04:38:55;-13.80;99.90
48019;DHT22;33786;48.690;9.562;2022-12-18T04:41:22;-13.90;99.90
48019;DHT22;33786;48.690;9.562;2022-12-18T04:43:49;-13.90;99.90
48019;DHT22;33786;48.690;9.562;2022-12-18T04:46:15;-13.90;99.90
48019;DHT22;33786;48.690;9.562;2022-12-18T04:48:44;-14.00;99.90
48019;DHT22;33786;48.690;9.562;2022-12-18T04:51:12;-14.10;99.90
48019;DHT22;33786;48.690;9.562;2022-12-18T04:53:38;-14.10;99.90
48019;DHT22;33786;48.690;9.562;2022-12-18T04:56:09;-14.10;99.90
48019;DHT22;33786;48.690;9.562;2022-12-18T04:58:37;-14.20;99.90
48019;DHT22;33786;48.690;9.562;2022-12-18T05:01:04;-14.10;99.90
48019;DHT22;33786;48.690;9.562;2022-12-18T05:03:31;-14.20;99.90
48019;DHT22;33786;48.690;9.562;2022-12-18T05:05:58;-14.20;99.90
48019;DHT22;33786;48.690;9.562;2022-12-18T05:08:25;-14.20;99.90
48019;DHT22;33786;48.690;9.562;2022-12-18T05:11:01;-14.20;99.90
48019;DHT22;33786;48.690;9.562;2022-12-18T05:13:28;-14.20;99.90
48019;DHT22;33786;48.690;9.562;2022-12-18T05:15:55;-14.20;99.90
48019;DHT22;33786;48.690;9.562;2022-12-18T05:18:22;-14.20;99.90
48019;DHT22;33786;48.690;9.562;2022-12-18T05:20:49;-14.20;99.90
48019;DHT22;33786;48.690;9.562;2022-12-18T05:23:20;-14.20;99.90
48019;DHT22;33786;48.690;9.562;2022-12-18T05:25:53;-14.40;99.90
48019;DHT22;33786;48.690;9.562;2022-12-18T05:28:20;-14.30;99.90
48019;DHT22;33786;48.690;9.562;2022-12-18T05:30:49;-14.40;99.90
48019;DHT22;33786;48.690;9.562;2022-12-18T05:33:17;-14.40;99.90
48019;DHT22;33786;48.690;9.562;2022-12-18T05:35:44;-14.40;99.90
48019;DHT22;33786;48.690;9.562;2022-12-18T05:38:11;-14.50;99.90
48019;DHT22;33786;48.690;9.562;2022-12-18T05:40:40;-14.50;99.90
48019;DHT22;33786;48.690;9.562;2022-12-18T05:43:07;-14.50;99.90
48019;DHT22;33786;48.690;9.562;2022-12-18T05:45:36;-14.60;99.90
48019;DHT22;33786;48.690;9.562;2022-12-18T05:48:03;-14.60;99.90
48019;DHT22;33786;48.690;9.562;2022-12-18T05:50:29;-14.70;99.90
48019;DHT22;33786;48.690;9.562;2022-12-18T05:52:56;-14.60;99.90
48019;DHT22;33786;48.690;9.562;2022-12-18T05:55:23;-14.60;99.90
48019;DHT22;33786;48.690;9.562;2022-12-18T05:57:50;-14.60;99.90
48019;DHT22;33786;48.690;9.562;2022-12-18T06:00:17;-14.70;99.90
48019;DHT22;33786;48.690;9.562;2022-12-18T06:02:46;-14.70;99.90
48019;DHT22;33786;48.690;9.562;2022-12-18T06:05:13;-14.80;99.90
48019;DHT22;33786;48.690;9.562;2022-12-18T06:07:40;-14.80;99.90
48019;DHT22;33786;48.690;9.562;2022-12-18T06:10:07;-14.80;99.90
48019;DHT22;33786;48.690;9.562;2022-12-18T06:12:34;-14.80;99.90
48019;DHT22;33786;48.690;9.562;2022-12-18T06:15:00;-14.80;99.90
48019;DHT22;33786;48.690;9.562;2022-12-18T06:17:31;-14.80;99.90
48019;DHT22;33786;48.690;9.562;2022-12-18T06:19:58;-14.80;99.90
48019;DHT22;33786;48.690;9.562;2022-12-18T06:22:25;-14.80;99.90
48019;DHT22;33786;48.690;9.562;2022-12-18T06:24:51;-14.80;99.90
48019;DHT22;33786;48.690;9.562;2022-12-18T06:27:18;-14.80;99.90
48019;DHT22;33786;48.690;9.562;2022-12-18T06:29:45;-14.80;99.90
48019;DHT22;33786;48.690;9.562;2022-12-18T06:32:12;-14.90;99.90
48019;DHT22;33786;48.690;9.562;2022-12-18T06:34:41;-14.80;99.90
48019;DHT22;33786;48.690;9.562;2022-12-18T06:37:08;-14.90;99.90
48019;DHT22;33786;48.690;9.562;2022-12-18T06:39:35;-14.90;99.90
48019;DHT22;33786;48.690;9.562;2022-12-18T06:42:02;-15.00;99.90
48019;DHT22;33786;48.690;9.562;2022-12-18T06:44:29;-15.00;99.90
48019;DHT22;33786;48.690;9.562;2022-12-18T06:46:56;-15.00;99.90
48019;DHT22;33786;48.690;9.562;2022-12-18T06:49:22;-15.00;99.90
48019;DHT22;33786;48.690;9.562;2022-12-18T06:51:55;-14.90;99.90
48019;DHT22;33786;48.690;9.562;2022-12-18T06:54:22;-14.90;99.90
48019;DHT22;33786;48.690;9.562;2022-12-18T06:56:49;-14.90;99.90
48019;DHT22;33786;48.690;9.562;2022-12-18T06:59:16;-14.90;99.90
48019;DHT22;33786;48.690;9.562;2022-12-18T07:01:43;-14.90;99.90
48019;DHT22;33786;48.690;9.562;2022-12-18T07:04:10;-14.80;99.90
48019;DHT22;33786;48.690;9.562;2022-12-18T07:06:36;-14.70;99.90
48019;DHT22;33786;48.690;9.562;2022-12-18T07:09:03;-14.70;99.90
48019;DHT22;33786;48.690;9.562;2022-12-18T07:11:32;-14.60;99.90
48019;DHT22;33786;48.690;9.562;2022-12-18T07:13:59;-14.60;99.90
48019;DHT22;33786;48.690;9.562;2022-12-18T07:16:25;-14.60;99.90
48019;DHT22;33786;48.690;9.562;2022-12-18T07:18:55;-14.50;99.90
48019;DHT22;33786;48.690;9.562;2022-12-18T07:21:22;-14.50;99.90
48019;DHT22;33786;48.690;9.562;2022-12-18T07:23:49;-14.50;99.90
48019;DHT22;33786;48.690;9.562;2022-12-18T07:26:17;-14.40;99.90
48019;DHT22;33786;48.690;9.562;2022-12-18T07:28:45;-14.40;99.90
48019;DHT22;33786;48.690;9.562;2022-12-18T07:31:14;-14.30;99.90
48019;DHT22;33786;48.690;9.562;2022-12-18T07:33:41;-14.20;99.90
48019;DHT22;33786;48.690;9.562;2022-12-18T07:36:09;-14.20;99.90
48019;DHT22;33786;48.690;9.562;2022-12-18T07:38:36;-14.30;99.90
48019;DHT22;33786;48.690;9.562;2022-12-18T07:41:10;-14.10;99.90
48019;DHT22;33786;48.690;9.562;2022-12-18T07:43:38;-14.00;99.90
48019;DHT22;33786;48.690;9.562;2022-12-18T07:46:06;-13.80;99.90
48019;DHT22;33786;48.690;9.562;2022-12-18T07:48:33;-13.70;99.90
48019;DHT22;33786;48.690;9.562;2022-12-18T07:51:04;-13.50;99.90
48019;DHT22;33786;48.690;9.562;2022-12-18T07:53:31;-13.30;99.90
48019;DHT22;33786;48.690;9.562;2022-12-18T07:55:59;-13.00;99.90
48019;DHT22;33786;48.690;9.562;2022-12-18T07:58:47;-12.60;99.90
48019;DHT22;33786;48.690;9.562;2022-12-18T08:01:14;-12.20;99.90
48019;DHT22;33786;48.690;9.562;2022-12-18T08:03:41;-11.50;99.90
48019;DHT22;33786;48.690;9.562;2022-12-18T08:06:08;-10.80;99.90
48019;DHT22;33786;48.690;9.562;2022-12-18T08:08:36;-10.10;99.60
48019;DHT22;33786;48.690;9.562;2022-12-18T08:11:02;-9.60;98.20
48019;DHT22;33786;48.690;9.562;2022-12-18T08:13:29;-9.10;97.30
48019;DHT22;33786;48.690;9.562;2022-12-18T08:15:57;-8.70;96.30
48019;DHT22;33786;48.690;9.562;2022-12-18T08:18:24;-8.40;95.60
48019;DHT22;33786;48.690;9.562;2022-12-18T08:20:51;-8.10;95.80
48019;DHT22;33786;48.690;9.562;2022-12-18T08:23:18;-7.30;95.10
48019;DHT22;33786;48.690;9.562;2022-12-18T08:25:45;-5.90;93.00
48019;DHT22;33786;48.690;9.562;2022-12-18T08:28:12;-4.30;89.00
48019;DHT22;33786;48.690;9.562;2022-12-18T08:30:39;-2.90;83.60
48019;DHT22;33786;48.690;9.562;2022-12-18T08:33:05;-1.70;80.80
48019;DHT22;33786;48.690;9.562;2022-12-18T08:35:36;-1.20;77.70
48019;DHT22;33786;48.690;9.562;2022-12-18T08:38:11;-0.50;75.30
48019;DHT22;33786;48.690;9.562;2022-12-18T08:40:37;0.10;72.90
48019;DHT22;33786;48.690;9.562;2022-12-18T08:43:04;0.10;73.60
48019;DHT22;33786;48.690;9.562;2022-12-18T08:45:49;0.70;72.20
48019;DHT22;33786;48.690;9.562;2022-12-18T08:48:16;1.20;71.60
48019;DHT22;33786;48.690;9.562;2022-12-18T08:50:57;1.90;70.50
48019;DHT22;33786;48.690;9.562;2022-12-18T08:53:25;2.60;68.80
48019;DHT22;33786;48.690;9.562;2022-12-18T08:55:58;3.10;66.70
48019;DHT22;33786;48.690;9.562;2022-12-18T08:58:25;3.20;65.70
48019;DHT22;33786;48.690;9.562;2022-12-18T09:00:51;3.40;66.10
48019;DHT22;33786;48.690;9.562;2022-12-18T09:03:19;3.20;69.20
48019;DHT22;33786;48.690;9.562;2022-12-18T09:05:45;3.40;67.20
48019;DHT22;33786;48.690;9.562;2022-12-18T09:08:13;3.40;68.30
48019;DHT22;33786;48.690;9.562;2022-12-18T09:10:47;3.60;67.20
48019;DHT22;33786;48.690;9.562;2022-12-18T09:13:14;4.10;67.50
48019;DHT22;33786;48.690;9.562;2022-12-18T09:15:42;4.30;67.10
48019;DHT22;33786;48.690;9.562;2022-12-18T09:18:09;5.00;65.90
48019;DHT22;33786;48.690;9.562;2022-12-18T09:20:36;5.10;65.30
48019;DHT22;33786;48.690;9.562;2022-12-18T09:23:03;5.60;65.30
48019;DHT22;33786;48.690;9.562;2022-12-18T09:25:30;5.90;64.10
48019;DHT22;33786;48.690;9.562;2022-12-18T09:28:02;6.20;64.00
48019;DHT22;33786;48.690;9.562;2022-12-18T09:30:29;6.60;63.40
48019;DHT22;33786;48.690;9.562;2022-12-18T09:32:56;6.70;62.80
48019;DHT22;33786;48.690;9.562;2022-12-18T09:35:23;7.00;62.40
48019;DHT22;33786;48.690;9.562;2022-12-18T09:37:51;7.40;62.30
48019;DHT22;33786;48.690;9.562;2022-12-18T09:40:21;7.40;62.30
48019;DHT22;33786;48.690;9.562;2022-12-18T09:42:51;7.90;62.70
48019;DHT22;33786;48.690;9.562;2022-12-18T09:45:18;8.20;61.30
48019;DHT22;33786;48.690;9.562;2022-12-18T09:47:45;8.90;60.30
48019;DHT22;33786;48.690;9.562;2022-12-18T09:52:44;8.70;61.00
48019;DHT22;33786;48.690;9.562;2022-12-18T09:57:49;8.90;60.80
48019;DHT22;33786;48.690;9.562;2022-12-18T10:00:19;8.70;60.70
48019;DHT22;33786;48.690;9.562;2022-12-18T10:02:46;9.00;60.20
48019;DHT22;33786;48.690;9.562;2022-12-18T10:05:17;9.10;60.00
48019;DHT22;33786;48.690;9.562;2022-12-18T10:10:31;9.10;60.30
48019;DHT22;33786;48.690;9.562;2022-12-18T10:13:02;9.60;60.00
48019;DHT22;33786;48.690;9.562;2022-12-18T10:15:44;10.00;60.70
48019;DHT22;33786;48.690;9.562;2022-12-18T10:18:17;10.60;58.40
48019;DHT22;33786;48.690;9.562;2022-12-18T10:20:49;11.10;57.90
48019;DHT22;33786;48.690;9.562;2022-12-18T10:28:22;11.90;57.10
48019;DHT22;33786;48.690;9.562;2022-12-18T10:30:49;11.80;57.20
48019;DHT22;33786;48.690;9.562;2022-12-18T10:33:18;11.50;58.00
48019;DHT22;33786;48.690;9.562;2022-12-18T10:35:45;11.00;58.40
48019;DHT22;33786;48.690;9.562;2022-12-18T10:43:35;10.30;60.60
48019;DHT22;33786;48.690;9.562;2022-12-18T10:48:29;11.50;58.90
48019;DHT22;33786;48.690;9.562;2022-12-18T10:50:56;11.30;59.30
48019;DHT22;33786;48.690;9.562;2022-12-18T10:53:40;10.90;59.80
48019;DHT22;33786;48.690;9.562;2022-12-18T10:56:08;10.90;60.60
48019;DHT22;33786;48.690;9.562;2022-12-18T10:58:35;10.90;60.50
48019;DHT22;33786;48.690;9.562;2022-12-18T11:01:12;11.50;59.70
48019;DHT22;33786;48.690;9.562;2022-12-18T11:06:11;10.30;62.00
48019;DHT22;33786;48.690;9.562;2022-12-18T11:08:38;9.80;62.90
48019;DHT22;33786;48.690;9.562;2022-12-18T11:11:27;8.60;65.30
48019;DHT22;33786;48.690;9.562;2022-12-18T11:16:22;7.10;68.40
48019;DHT22;33786;48.690;9.562;2022-12-18T11:18:50;7.10;68.50
48019;DHT22;33786;48.690;9.562;2022-12-18T11:21:17;7.90;67.20
48019;DHT22;33786;48.690;9.562;2022-12-18T11:23:49;7.70;66.80
48019;DHT22;33786;48.690;9.562;2022-12-18T11:26:16;8.20;67.20
48019;DHT22;33786;48.690;9.562;2022-12-18T11:31:26;7.00;68.70
48019;DHT22;33786;48.690;9.562;2022-12-18T11:36:46;5.70;71.20
48019;DHT22;33786;48.690;9.562;2022-12-18T11:39:33;5.00;72.90
48019;DHT22;33786;48.690;9.562;2022-12-18T11:42:09;4.90;73.70
48019;DHT22;33786;48.690;9.562;2022-12-18T11:49:52;5.90;71.80
48019;DHT22;33786;48.690;9.562;2022-12-18T11:54:46;6.20;71.40
48019;DHT22;33786;48.690;9.562;2022-12-18T11:57:34;5.60;72.50
48019;DHT22;33786;48.690;9.562;2022-12-18T12:00:08;5.00;74.50
48019;DHT22;33786;48.690;9.562;2022-12-18T12:02:42;4.00;77.40
48019;DHT22;33786;48.690;9.562;2022-12-18T12:05:18;3.70;78.70
48019;DHT22;33786;48.690;9.562;2022-12-18T12:07:48;3.10;80.30
48019;DHT22;33786;48.690;9.562;2022-12-18T12:12:55;1.70;84.70
48019;DHT22;33786;48.690;9.562;2022-12-18T12:16:00;1.60;86.00
48019;DHT22;33786;48.690;9.562;2022-12-18T12:18:21;1.60;86.50
48019;DHT22;33786;48.690;9.562;2022-12-18T12:26:10;0.90;89.30
48019;DHT22;33786;48.690;9.562;2022-12-18T12:31:30;0.40;91.00
48019;DHT22;33786;48.690;9.562;2022-12-18T12:34:13;0.30;91.40
48019;DHT22;33786;48.690;9.562;2022-12-18T12:39:20;0.00;92.40
48019;DHT22;33786;48.690;9.562;2022-12-18T12:41:48;-0.20;92.60
48019;DHT22;33786;48.690;9.562;2022-12-18T12:44:44;-0.20;93.00
48019;DHT22;33786;48.690;9.562;2022-12-18T12:47:20;-0.10;93.60
48019;DHT22;33786;48.690;9.562;2022-12-18T12:49:49;0.10;93.10
48019;DHT22;33786;48.690;9.562;2022-12-18T12:52:41;0.10;92.90
48019;DHT22;33786;48.690;9.562;2022-12-18T12:55:13;-0.30;94.00
48019;DHT22;33786;48.690;9.562;2022-12-18T12:57:45;-0.30;94.20
48019;DHT22;33786;48.690;9.562;2022-12-18T13:00:13;-0.40;94.60
48019;DHT22;33786;48.690;9.562;2022-12-18T13:02:51;-0.40;94.80
48019;DHT22;33786;48.690;9.562;2022-12-18T13:08:05;-0.20;95.30
48019;DHT22;33786;48.690;9.562;2022-12-18T13:13:04;0.20;94.70
48019;DHT22;33786;48.690;9.562;2022-12-18T13:18:15;0.10;94.80
48019;DHT22;33786;48.690;9.562;2022-12-18T13:20:44;0.00;94.90
48019;DHT22;33786;48.690;9.562;2022-12-18T13:25:47;-0.20;95.30
48019;DHT22;33786;48.690;9.562;2022-12-18T13:28:15;-0.10;95.20
48019;DHT22;33786;48.690;9.562;2022-12-18T13:30:46;-0.30;95.30
48019;DHT22;33786;48.690;9.562;2022-12-18T13:38:34;-0.30;95.60
48019;DHT22;33786;48.690;9.562;2022-12-18T13:41:02;-0.50;95.60
48019;DHT22;33786;48.690;9.562;2022-12-18T13:46:59;-0.50;96.00
48019;DHT22;33786;48.690;9.562;2022-12-18T13:48:55;-0.50;96.10
48019;DHT22;33786;48.690;9.562;2022-12-18T13:51:22;-0.50;96.10
48019;DHT22;33786;48.690;9.562;2022-12-18T13:56:26;-0.60;96.40
48019;DHT22;33786;48.690;9.562;2022-12-18T14:01:30;-0.80;96.70
48019;DHT22;33786;48.690;9.562;2022-12-18T14:07:12;-0.80;96.90
48019;DHT22;33786;48.690;9.562;2022-12-18T14:09:42;-0.90;97.40
48019;DHT22;33786;48.690;9.562;2022-12-18T14:12:17;-0.90;97.50
48019;DHT22;33786;48.690;9.562;2022-12-18T14:15:03;-0.90;97.60
48019;DHT22;33786;48.690;9.562;2022-12-18T14:17:32;-0.80;97.40
48019;DHT22;33786;48.690;9.562;2022-12-18T14:20:00;-0.80;97.10
48019;DHT22;33786;48.690;9.562;2022-12-18T14:22:26;-0.70;97.20
48019;DHT22;33786;48.690;9.562;2022-12-18T14:27:46;-0.50;96.80
48019;DHT22;33786;48.690;9.562;2022-12-18T14:30:32;-0.80;97.10
48019;DHT22;33786;48.690;9.562;2022-12-18T14:35:28;-1.10;97.80
48019;DHT22;33786;48.690;9.562;2022-12-18T14:38:09;-1.40;98.30
48019;DHT22;33786;48.690;9.562;2022-12-18T14:40:35;-1.40;98.70
48019;DHT22;33786;48.690;9.562;2022-12-18T14:43:02;-1.30;98.70
48019;DHT22;33786;48.690;9.562;2022-12-18T14:48:13;-1.40;98.70
48019;DHT22;33786;48.690;9.562;2022-12-18T14:53:44;-1.70;99.40
48019;DHT22;33786;48.690;9.562;2022-12-18T14:56:21;-1.70;99.50
48019;DHT22;33786;48.690;9.562;2022-12-18T14:58:48;-1.60;99.60
48019;DHT22;33786;48.690;9.562;2022-12-18T15:01:19;-1.60;99.60
48019;DHT22;33786;48.690;9.562;2022-12-18T15:03:47;-1.70;99.70
48019;DHT22;33786;48.690;9.562;2022-12-18T15:06:33;-1.80;99.80
48019;DHT22;33786;48.690;9.562;2022-12-18T15:09:02;-2.00;99.90
48019;DHT22;33786;48.690;9.562;2022-12-18T15:11:32;-2.00;99.90
48019;DHT22;33786;48.690;9.562;2022-12-18T15:14:00;-2.20;99.90
48019;DHT22;33786;48.690;9.562;2022-12-18T15:16:27;-2.30;99.90
48019;DHT22;33786;48.690;9.562;2022-12-18T15:18:54;-2.40;99.90
48019;DHT22;33786;48.690;9.562;2022-12-18T15:21:21;-2.50;99.90
48019;DHT22;33786;48.690;9.562;2022-12-18T15:23:50;-2.60;99.90
48019;DHT22;33786;48.690;9.562;2022-12-18T15:26:19;-2.70;99.90
48019;DHT22;33786;48.690;9.562;2022-12-18T15:28:50;-2.70;99.90
48019;DHT22;33786;48.690;9.562;2022-12-18T15:31:31;-2.70;99.90
48019;DHT22;33786;48.690;9.562;2022-12-18T15:34:00;-2.90;99.90
48019;DHT22;33786;48.690;9.562;2022-12-18T15:36:30;-3.00;99.90
48019;DHT22;33786;48.690;9.562;2022-12-18T15:38:57;-3.10;99.90
48019;DHT22;33786;48.690;9.562;2022-12-18T15:41:31;-3.20;99.90
48019;DHT22;33786;48.690;9.562;2022-12-18T15:43:59;-3.20;99.90
48019;DHT22;33786;48.690;9.562;2022-12-18T15:46:26;-3.30;99.90
48019;DHT22;33786;48.690;9.562;2022-12-18T15:48:54;-3.40;99.90
48019;DHT22;33786;48.690;9.562;2022-12-18T15:51:28;-3.50;99.90
48019;DHT22;33786;48.690;9.562;2022-12-18T15:53:56;-3.50;99.90
48019;DHT22;33786;48.690;9.562;2022-12-18T15:56:23;-3.50;99.90
48019;DHT22;33786;48.690;9.562;2022-12-18T15:59:09;-3.60;99.90
48019;DHT22;33786;48.690;9.562;2022-12-18T16:01:36;-3.60;99.90
48019;DHT22;33786;48.690;9.562;2022-12-18T16:04:09;-3.60;99.90
48019;DHT22;33786;48.690;9.562;2022-12-18T16:06:36;-3.80;99.90
48019;DHT22;33786;48.690;9.562;2022-12-18T16:09:23;-3.80;99.90
48019;DHT22;33786;48.690;9.562;2022-12-18T16:11:52;-3.80;99.90
48019;DHT22;33786;48.690;9.562;2022-12-18T16:14:20;-3.90;99.90
48019;DHT22;33786;48.690;9.562;2022-12-18T16:16:51;-3.90;99.90
48019;DHT22;33786;48.690;9.562;2022-12-18T16:19:18;-4.00;99.90
48019;DHT22;33786;48.690;9.562;2022-12-18T16:21:45;-4.00;99.90
48019;DHT22;33786;48.690;9.562;2022-12-18T16:24:22;-4.00;99.90
48019;DHT22;33786;48.690;9.562;2022-12-18T16:26:49;-4.10;99.90
48019;DHT22;33786;48.690;9.562;2022-12-18T16:29:18;-4.10;99.90
48019;DHT22;33786;48.690;9.562;2022-12-18T16:31:45;-4.20;99.90
48019;DHT22;33786;48.690;9.562;2022-12-18T16:36:41;-4.20;99.90
48019;DHT22;33786;48.690;9.562;2022-12-18T16:39:08;-4.30;99.90
48019;DHT22;33786;48.690;9.562;2022-12-18T16:41:35;-4.30;99.90
48019;DHT22;33786;48.690;9.562;2022-12-18T16:44:02;-4.30;99.90
48019;DHT22;33786;48.690;9.562;2022-12-18T16:46:29;-4.30;99.90
48019;DHT22;33786;48.690;9.562;2022-12-18T16:48:56;-4.50;99.90
48019;DHT22;33786;48.690;9.562;2022-12-18T16:51:23;-4.50;99.90
48019;DHT22;33786;48.690;9.562;2022-12-18T16:53:50;-4.50;99.90
48019;DHT22;33786;48.690;9.562;2022-12-18T16:56:17;-4.60;99.90
48019;DHT22;33786;48.690;9.562;2022-12-18T16:58:48;-4.60;99.90
48019;DHT22;33786;48.690;9.562;2022-12-18T17:01:15;-4.60;99.90
48019;DHT22;33786;48.690;9.562;2022-12-18T17:03:42;-4.60;99.90
48019;DHT22;33786;48.690;9.562;2022-12-18T17:06:11;-4.60;99.90
48019;DHT22;33786;48.690;9.562;2022-12-18T17:08:38;-4.70;99.90
48019;DHT22;33786;48.690;9.562;2022-12-18T17:11:05;-4.70;99.90
48019;DHT22;33786;48.690;9.562;2022-12-18T17:13:32;-4.70;99.90
48019;DHT22;33786;48.690;9.562;2022-12-18T17:16:03;-4.80;99.90
48019;DHT22;33786;48.690;9.562;2022-12-18T17:18:30;-4.80;99.90
48019;DHT22;33786;48.690;9.562;2022-12-18T17:21:00;-4.80;99.90
48019;DHT22;33786;48.690;9.562;2022-12-18T17:23:27;-4.80;99.90
48019;DHT22;33786;48.690;9.562;2022-12-18T17:25:56;-4.80;99.90
48019;DHT22;33786;48.690;9.562;2022-12-18T17:28:23;-4.80;99.90
48019;DHT22;33786;48.690;9.562;2022-12-18T17:30:51;-4.90;99.90
48019;DHT22;33786;48.690;9.562;2022-12-18T17:33:18;-5.00;99.90
48019;DHT22;33786;48.690;9.562;2022-12-18T17:35:45;-5.00;99.90
48019;DHT22;33786;48.690;9.562;2022-12-18T17:38:13;-5.00;99.90
48019;DHT22;33786;48.690;9.562;2022-12-18T17:40:40;-5.10;99.90